sensor_id;sensor_type;location;lat;lon;timestamp;temperature;humidity
11736;DHT22;5924;51.398;7.088;2022-10-24T00:00:26;15.40;99.90
11736;DHT22;5924;51.398;7.088;2022-10-24T00:02:52;14.00;99.90
11736;DHT22;5924;51.398;7.088;2022-10-24T00:05:17;15.40;99.90
11736;DHT22;5924;51.398;7.088;2022-10-24T00:07:43;15.40;99.90
11736;DHT22;5924;51.398;7.088;2022-10-24T00:10:11;15.50;99.90
11736;DHT22;5924;51.398;7.088;2022-10-24T00:12:37;15.40;99.90
11736;DHT22;5924;51.398;7.088;2022-10-24T00:15:04;15.40;99.90
11736;DHT22;5924;51.398;7.088;2022-10-24T00:17:30;15.40;99.90
11736;DHT22;5924;51.398;7.088;2022-10-24T00:19:55;15.40;99.90
11736;DHT22;5924;51.398;7.088;2022-10-24T00:22:23;15.50;99.90
11736;DHT22;5924;51.398;7.088;2022-10-24T00:24:49;15.50;99.90
11736;DHT22;5924;51.398;7.088;2022-10-24T00:27:15;15.60;99.90
11736;DHT22;5924;51.398;7.088;2022-10-24T00:29:40;15.50;99.90
11736;DHT22;5924;51.398;7.088;2022-10-24T00:32:06;15.50;99.90
11736;DHT22;5924;51.398;7.088;2022-10-24T00:34:31;15.50;99.90
11736;DHT22;5924;51.398;7.088;2022-10-24T00:36:57;15.40;99.90
11736;DHT22;5924;51.398;7.088;2022-10-24T00:39:23;15.50;99.90
11736;DHT22;5924;51.398;7.088;2022-10-24T00:41:49;15.50;99.90
11736;DHT22;5924;51.398;7.088;2022-10-24T00:44:24;15.50;99.90
11736;DHT22;5924;51.398;7.088;2022-10-24T00:47:03;15.50;99.90
11736;DHT22;5924;51.398;7.088;2022-10-24T00:52:29;14.70;99.90
11736;DHT22;5924;51.398;7.088;2022-10-24T00:54:56;15.50;99.90
11736;DHT22;5924;51.398;7.088;2022-10-24T00:57:34;15.60;99.90
11736;DHT22;5924;51.398;7.088;2022-10-24T01:00:07;15.70;99.90
11736;DHT22;5924;51.398;7.088;2022-10-24T01:02:34;15.70;99.90
11736;DHT22;5924;51.398;7.088;2022-10-24T01:05:00;15.70;99.90
11736;DHT22;5924;51.398;7.088;2022-10-24T01:16:18;15.80;99.90
11736;DHT22;5924;51.398;7.088;2022-10-24T01:19:16;15.80;99.90
11736;DHT22;5924;51.398;7.088;2022-10-24T01:22:02;15.80;99.90
11736;DHT22;5924;51.398;7.088;2022-10-24T01:24:48;15.90;99.90
11736;DHT22;5924;51.398;7.088;2022-10-24T01:27:51;16.00;99.90
11736;DHT22;5924;51.398;7.088;2022-10-24T01:30:18;16.00;99.90
11736;DHT22;5924;51.398;7.088;2022-10-24T01:33:52;15.90;99.90
11736;DHT22;5924;51.398;7.088;2022-10-24T01:35:55;16.00;99.90
11736;DHT22;5924;51.398;7.088;2022-10-24T01:38:39;16.00;99.90
11736;DHT22;5924;51.398;7.088;2022-10-24T01:41:10;15.90;99.90
11736;DHT22;5924;51.398;7.088;2022-10-24T01:43:44;15.90;99.90
11736;DHT22;5924;51.398;7.088;2022-10-24T01:46:20;15.90;99.90
11736;DHT22;5924;51.398;7.088;2022-10-24T01:48:51;15.90;99.90
11736;DHT22;5924;51.398;7.088;2022-10-24T01:51:19;15.90;99.90
11736;DHT22;5924;51.398;7.088;2022-10-24T01:53:47;15.90;99.90
11736;DHT22;5924;51.398;7.088;2022-10-24T01:56:13;15.80;99.90
11736;DHT22;5924;51.398;7.088;2022-10-24T01:58:39;15.80;99.90
11736;DHT22;5924;51.398;7.088;2022-10-24T02:01:08;15.80;99.90
11736;DHT22;5924;51.398;7.088;2022-10-24T02:03:36;15.80;99.90
11736;DHT22;5924;51.398;7.088;2022-10-24T02:06:07;15.80;99.90
11736;DHT22;5924;51.398;7.088;2022-10-24T02:08:40;15.80;99.90
11736;DHT22;5924;51.398;7.088;2022-10-24T02:11:08;15.70;99.90
11736;DHT22;5924;51.398;7.088;2022-10-24T02:13:42;15.70;99.90
11736;DHT22;5924;51.398;7.088;2022-10-24T02:16:10;15.60;99.90
11736;DHT22;5924;51.398;7.088;2022-10-24T02:18:38;15.70;99.90
11736;DHT22;5924;51.398;7.088;2022-10-24T02:29:33;15.60;99.90
11736;DHT22;5924;51.398;7.088;2022-10-24T02:32:04;15.50;99.90
11736;DHT22;5924;51.398;7.088;2022-10-24T02:34:31;15.50;99.90
11736;DHT22;5924;51.398;7.088;2022-10-24T02:36:58;15.40;99.90
11736;DHT22;5924;51.398;7.088;2022-10-24T02:39:26;15.30;99.90
11736;DHT22;5924;51.398;7.088;2022-10-24T02:41:53;15.30;99.90
11736;DHT22;5924;51.398;7.088;2022-10-24T02:44:21;15.30;99.90
11736;DHT22;5924;51.398;7.088;2022-10-24T02:46:48;15.30;99.90
11736;DHT22;5924;51.398;7.088;2022-10-24T02:49:15;15.30;99.90
11736;DHT22;5924;51.398;7.088;2022-10-24T02:51:42;15.30;99.90
11736;DHT22;5924;51.398;7.088;2022-10-24T02:54:09;15.30;99.90
11736;DHT22;5924;51.398;7.088;2022-10-24T02:56:38;15.30;99.90
11736;DHT22;5924;51.398;7.088;2022-10-24T02:59:05;15.40;99.90
11736;DHT22;5924;51.398;7.088;2022-10-24T03:01:31;15.40;99.90
11736;DHT22;5924;51.398;7.088;2022-10-24T03:03:57;15.30;99.90
11736;DHT22;5924;51.398;7.088;2022-10-24T03:06:23;15.30;99.90
11736;DHT22;5924;51.398;7.088;2022-10-24T03:08:48;15.30;99.90
11736;DHT22;5924;51.398;7.088;2022-10-24T03:11:14;15.30;99.90
11736;DHT22;5924;51.398;7.088;2022-10-24T03:13:40;15.40;99.90
11736;DHT22;5924;51.398;7.088;2022-10-24T03:16:06;15.40;99.90
11736;DHT22;5924;51.398;7.088;2022-10-24T03:18:31;15.40;99.90
11736;DHT22;5924;51.398;7.088;2022-10-24T03:20:57;15.40;99.90
11736;DHT22;5924;51.398;7.088;2022-10-24T03:23:22;15.40;99.90
11736;DHT22;5924;51.398;7.088;2022-10-24T03:25:49;15.40;99.90
11736;DHT22;5924;51.398;7.088;2022-10-24T03:28:15;15.50;99.90
11736;DHT22;5924;51.398;7.088;2022-10-24T03:30:41;15.40;99.90
11736;DHT22;5924;51.398;7.088;2022-10-24T03:33:06;15.40;99.90
11736;DHT22;5924;51.398;7.088;2022-10-24T03:35:32;15.30;99.90
11736;DHT22;5924;51.398;7.088;2022-10-24T03:37:57;15.40;99.90
11736;DHT22;5924;51.398;7.088;2022-10-24T03:40:23;15.40;99.90
11736;DHT22;5924;51.398;7.088;2022-10-24T03:42:48;15.40;99.90
11736;DHT22;5924;51.398;7.088;2022-10-24T03:45:14;15.30;99.90
11736;DHT22;5924;51.398;7.088;2022-10-24T03:47:40;15.40;99.90
11736;DHT22;5924;51.398;7.088;2022-10-24T03:50:06;15.30;99.90
11736;DHT22;5924;51.398;7.088;2022-10-24T03:52:32;15.20;99.90
11736;DHT22;5924;51.398;7.088;2022-10-24T03:54:58;15.30;99.90
11736;DHT22;5924;51.398;7.088;2022-10-24T03:57:23;15.30;99.90
11736;DHT22;5924;51.398;7.088;2022-10-24T03:59:49;15.40;99.90
11736;DHT22;5924;51.398;7.088;2022-10-24T04:02:15;15.40;99.90
11736;DHT22;5924;51.398;7.088;2022-10-24T04:04:40;15.50;99.90
11736;DHT22;5924;51.398;7.088;2022-10-24T04:07:06;15.50;99.90
11736;DHT22;5924;51.398;7.088;2022-10-24T04:09:32;15.50;99.90
11736;DHT22;5924;51.398;7.088;2022-10-24T04:11:58;15.40;99.90
11736;DHT22;5924;51.398;7.088;2022-10-24T04:14:23;15.70;99.90
11736;DHT22;5924;51.398;7.088;2022-10-24T04:16:49;15.50;99.90
11736;DHT22;5924;51.398;7.088;2022-10-24T04:19:14;15.50;99.90
11736;DHT22;5924;51.398;7.088;2022-10-24T04:21:43;15.50;99.90
11736;DHT22;5924;51.398;7.088;2022-10-24T04:24:10;15.50;99.90
11736;DHT22;5924;51.398;7.088;2022-10-24T04:26:35;15.50;99.90
11736;DHT22;5924;51.398;7.088;2022-10-24T04:29:01;15.50;99.90
11736;DHT22;5924;51.398;7.088;2022-10-24T04:31:26;15.50;99.90
11736;DHT22;5924;51.398;7.088;2022-10-24T04:33:52;15.60;99.90
11736;DHT22;5924;51.398;7.088;2022-10-24T04:36:18;15.60;99.90
11736;DHT22;5924;51.398;7.088;2022-10-24T04:38:43;15.60;99.90
11736;DHT22;5924;51.398;7.088;2022-10-24T04:41:09;15.60;99.90
11736;DHT22;5924;51.398;7.088;2022-10-24T04:43:35;15.60;99.90
11736;DHT22;5924;51.398;7.088;2022-10-24T04:46:00;15.60;99.90
11736;DHT22;5924;51.398;7.088;2022-10-24T04:48:27;15.60;99.90
11736;DHT22;5924;51.398;7.088;2022-10-24T04:50:53;15.50;99.90
11736;DHT22;5924;51.398;7.088;2022-10-24T04:53:19;15.50;99.90
11736;DHT22;5924;51.398;7.088;2022-10-24T04:55:45;15.50;99.90
11736;DHT22;5924;51.398;7.088;2022-10-24T04:58:11;15.50;99.90
11736;DHT22;5924;51.398;7.088;2022-10-24T05:00:36;15.50;99.90
11736;DHT22;5924;51.398;7.088;2022-10-24T05:03:02;15.50;99.90
11736;DHT22;5924;51.398;7.088;2022-10-24T05:05:28;15.50;99.90
11736;DHT22;5924;51.398;7.088;2022-10-24T05:07:54;15.50;99.90
11736;DHT22;5924;51.398;7.088;2022-10-24T05:10:20;15.50;99.90
11736;DHT22;5924;51.398;7.088;2022-10-24T05:12:45;15.50;99.90
11736;DHT22;5924;51.398;7.088;2022-10-24T05:15:11;15.40;99.90
11736;DHT22;5924;51.398;7.088;2022-10-24T05:17:39;15.40;99.90
11736;DHT22;5924;51.398;7.088;2022-10-24T05:20:05;15.40;99.90
11736;DHT22;5924;51.398;7.088;2022-10-24T05:22:31;15.40;99.90
11736;DHT22;5924;51.398;7.088;2022-10-24T05:24:57;15.30;99.90
11736;DHT22;5924;51.398;7.088;2022-10-24T05:27:23;15.30;99.90
11736;DHT22;5924;51.398;7.088;2022-10-24T05:29:58;15.40;99.90
11736;DHT22;5924;51.398;7.088;2022-10-24T05:32:24;15.40;99.90
11736;DHT22;5924;51.398;7.088;2022-10-24T05:34:50;15.30;99.90
11736;DHT22;5924;51.398;7.088;2022-10-24T05:37:16;15.20;99.90
11736;DHT22;5924;51.398;7.088;2022-10-24T05:39:42;15.20;99.90
11736;DHT22;5924;51.398;7.088;2022-10-24T05:42:07;15.20;99.90
11736;DHT22;5924;51.398;7.088;2022-10-24T05:44:35;15.20;99.90
11736;DHT22;5924;51.398;7.088;2022-10-24T05:47:01;15.20;99.90
11736;DHT22;5924;51.398;7.088;2022-10-24T05:49:27;15.20;99.90
11736;DHT22;5924;51.398;7.088;2022-10-24T05:51:52;15.30;99.90
11736;DHT22;5924;51.398;7.088;2022-10-24T05:54:18;15.30;99.90
11736;DHT22;5924;51.398;7.088;2022-10-24T05:56:43;15.30;99.90
11736;DHT22;5924;51.398;7.088;2022-10-24T05:59:09;15.20;99.90
11736;DHT22;5924;51.398;7.088;2022-10-24T06:01:35;15.20;99.90
11736;DHT22;5924;51.398;7.088;2022-10-24T06:04:00;15.30;99.90
11736;DHT22;5924;51.398;7.088;2022-10-24T06:06:26;15.20;99.90
11736;DHT22;5924;51.398;7.088;2022-10-24T06:08:52;15.20;99.90
11736;DHT22;5924;51.398;7.088;2022-10-24T06:11:18;15.20;99.90
11736;DHT22;5924;51.398;7.088;2022-10-24T06:13:44;15.20;99.90
11736;DHT22;5924;51.398;7.088;2022-10-24T06:16:10;15.20;99.90
11736;DHT22;5924;51.398;7.088;2022-10-24T06:18:37;15.30;99.90
11736;DHT22;5924;51.398;7.088;2022-10-24T06:21:05;15.30;99.90
11736;DHT22;5924;51.398;7.088;2022-10-24T06:23:31;15.40;99.90
11736;DHT22;5924;51.398;7.088;2022-10-24T06:25:57;15.40;99.90
11736;DHT22;5924;51.398;7.088;2022-10-24T06:28:23;15.40;99.90
11736;DHT22;5924;51.398;7.088;2022-10-24T06:30:49;15.40;99.90
11736;DHT22;5924;51.398;7.088;2022-10-24T06:33:16;15.40;99.90
11736;DHT22;5924;51.398;7.088;2022-10-24T06:35:41;15.40;99.90
11736;DHT22;5924;51.398;7.088;2022-10-24T06:38:07;15.40;99.90
11736;DHT22;5924;51.398;7.088;2022-10-24T06:40:33;15.40;99.90
11736;DHT22;5924;51.398;7.088;2022-10-24T06:42:58;15.40;99.90
11736;DHT22;5924;51.398;7.088;2022-10-24T06:45:24;15.40;99.90
11736;DHT22;5924;51.398;7.088;2022-10-24T06:47:50;15.40;99.90
11736;DHT22;5924;51.398;7.088;2022-10-24T06:50:16;15.40;99.90
11736;DHT22;5924;51.398;7.088;2022-10-24T06:52:42;15.40;99.90
11736;DHT22;5924;51.398;7.088;2022-10-24T06:55:08;15.40;99.90
11736;DHT22;5924;51.398;7.088;2022-10-24T06:57:33;15.40;99.90
11736;DHT22;5924;51.398;7.088;2022-10-24T06:59:59;15.50;99.90
11736;DHT22;5924;51.398;7.088;2022-10-24T07:02:25;15.60;99.90
11736;DHT22;5924;51.398;7.088;2022-10-24T07:04:50;15.70;99.90
11736;DHT22;5924;51.398;7.088;2022-10-24T07:07:18;15.80;99.90
11736;DHT22;5924;51.398;7.088;2022-10-24T07:09:49;15.80;99.90
11736;DHT22;5924;51.398;7.088;2022-10-24T07:12:15;15.90;99.90
11736;DHT22;5924;51.398;7.088;2022-10-24T07:14:41;15.90;99.90
11736;DHT22;5924;51.398;7.088;2022-10-24T07:17:06;16.10;99.90
11736;DHT22;5924;51.398;7.088;2022-10-24T07:19:32;16.20;99.90
11736;DHT22;5924;51.398;7.088;2022-10-24T07:21:58;16.20;99.90
11736;DHT22;5924;51.398;7.088;2022-10-24T07:24:23;16.30;99.90
11736;DHT22;5924;51.398;7.088;2022-10-24T07:26:49;16.20;99.90
11736;DHT22;5924;51.398;7.088;2022-10-24T07:29:15;16.30;99.90
11736;DHT22;5924;51.398;7.088;2022-10-24T07:31:40;16.30;99.90
11736;DHT22;5924;51.398;7.088;2022-10-24T07:34:07;16.30;99.90
11736;DHT22;5924;51.398;7.088;2022-10-24T07:36:33;16.30;99.90
11736;DHT22;5924;51.398;7.088;2022-10-24T07:39:00;14.80;99.90
11736;DHT22;5924;51.398;7.088;2022-10-24T07:41:27;16.20;99.90
11736;DHT22;5924;51.398;7.088;2022-10-24T07:43:53;16.20;99.90
11736;DHT22;5924;51.398;7.088;2022-10-24T07:46:20;16.20;99.90
11736;DHT22;5924;51.398;7.088;2022-10-24T07:48:51;16.10;99.90
11736;DHT22;5924;51.398;7.088;2022-10-24T07:51:18;16.10;99.90
11736;DHT22;5924;51.398;7.088;2022-10-24T07:53:44;16.20;99.90
11736;DHT22;5924;51.398;7.088;2022-10-24T07:56:10;16.20;99.90
11736;DHT22;5924;51.398;7.088;2022-10-24T07:58:39;16.20;99.90
11736;DHT22;5924;51.398;7.088;2022-10-24T08:01:07;16.20;99.90
11736;DHT22;5924;51.398;7.088;2022-10-24T08:03:33;16.20;99.90
11736;DHT22;5924;51.398;7.088;2022-10-24T08:05:59;16.20;99.90
11736;DHT22;5924;51.398;7.088;2022-10-24T08:08:25;16.30;99.90
11736;DHT22;5924;51.398;7.088;2022-10-24T08:10:51;16.40;99.90
11736;DHT22;5924;51.398;7.088;2022-10-24T08:13:17;16.70;99.90
11736;DHT22;5924;51.398;7.088;2022-10-24T08:15:42;16.80;99.90
11736;DHT22;5924;51.398;7.088;2022-10-24T08:18:08;17.00;99.90
11736;DHT22;5924;51.398;7.088;2022-10-24T08:20:34;17.20;99.90
11736;DHT22;5924;51.398;7.088;2022-10-24T08:22:59;17.30;99.90
11736;DHT22;5924;51.398;7.088;2022-10-24T08:25:25;17.30;99.90
11736;DHT22;5924;51.398;7.088;2022-10-24T08:27:51;17.30;99.90
11736;DHT22;5924;51.398;7.088;2022-10-24T08:30:16;17.50;99.90
11736;DHT22;5924;51.398;7.088;2022-10-24T08:32:42;17.50;99.90
11736;DHT22;5924;51.398;7.088;2022-10-24T08:35:08;17.50;99.90
11736;DHT22;5924;51.398;7.088;2022-10-24T08:37:35;17.60;99.90
11736;DHT22;5924;51.398;7.088;2022-10-24T08:40:05;17.60;99.90
11736;DHT22;5924;51.398;7.088;2022-10-24T08:42:32;17.60;99.90
11736;DHT22;5924;51.398;7.088;2022-10-24T08:44:58;17.50;99.90
11736;DHT22;5924;51.398;7.088;2022-10-24T08:47:25;17.50;99.90
11736;DHT22;5924;51.398;7.088;2022-10-24T08:52:39;17.50;99.90
11736;DHT22;5924;51.398;7.088;2022-10-24T08:55:16;17.40;99.90
11736;DHT22;5924;51.398;7.088;2022-10-24T08:57:44;17.30;99.90
11736;DHT22;5924;51.398;7.088;2022-10-24T09:00:24;17.30;99.90
11736;DHT22;5924;51.398;7.088;2022-10-24T09:03:09;17.20;99.90
11736;DHT22;5924;51.398;7.088;2022-10-24T09:05:46;17.20;99.90
11736;DHT22;5924;51.398;7.088;2022-10-24T09:11:04;17.20;99.90
11736;DHT22;5924;51.398;7.088;2022-10-24T09:13:34;17.20;99.90
11736;DHT22;5924;51.398;7.088;2022-10-24T09:16:00;17.10;99.90
11736;DHT22;5924;51.398;7.088;2022-10-24T09:18:30;17.10;99.90
11736;DHT22;5924;51.398;7.088;2022-10-24T09:20:57;17.10;99.90
11736;DHT22;5924;51.398;7.088;2022-10-24T09:23:24;17.10;99.90
11736;DHT22;5924;51.398;7.088;2022-10-24T09:25:53;17.10;99.90
11736;DHT22;5924;51.398;7.088;2022-10-24T09:28:20;17.20;99.90
11736;DHT22;5924;51.398;7.088;2022-10-24T09:30:47;17.20;99.90
11736;DHT22;5924;51.398;7.088;2022-10-24T09:35:42;17.50;99.90
11736;DHT22;5924;51.398;7.088;2022-10-24T09:41:07;17.60;99.90
11736;DHT22;5924;51.398;7.088;2022-10-24T09:46:18;17.40;99.90
11736;DHT22;5924;51.398;7.088;2022-10-24T09:48:45;17.30;99.90
11736;DHT22;5924;51.398;7.088;2022-10-24T09:51:35;17.30;99.90
11736;DHT22;5924;51.398;7.088;2022-10-24T09:54:21;17.40;99.90
11736;DHT22;5924;51.398;7.088;2022-10-24T10:04:40;17.90;99.90
11736;DHT22;5924;51.398;7.088;2022-10-24T10:07:12;18.00;99.90
11736;DHT22;5924;51.398;7.088;2022-10-24T10:09:50;18.10;99.90
11736;DHT22;5924;51.398;7.088;2022-10-24T10:12:36;18.10;99.90
11736;DHT22;5924;51.398;7.088;2022-10-24T10:15:32;18.20;99.90
11736;DHT22;5924;51.398;7.088;2022-10-24T10:20:45;18.30;99.90
11736;DHT22;5924;51.398;7.088;2022-10-24T10:23:28;18.20;99.90
11736;DHT22;5924;51.398;7.088;2022-10-24T10:28:51;17.90;99.90
11736;DHT22;5924;51.398;7.088;2022-10-24T10:31:20;17.90;99.90
11736;DHT22;5924;51.398;7.088;2022-10-24T10:34:16;18.00;99.90
11736;DHT22;5924;51.398;7.088;2022-10-24T10:47:55;17.80;99.90
11736;DHT22;5924;51.398;7.088;2022-10-24T10:50:35;17.60;99.90
11736;DHT22;5924;51.398;7.088;2022-10-24T10:53:34;17.30;99.90
11736;DHT22;5924;51.398;7.088;2022-10-24T10:56:38;17.70;99.90
11736;DHT22;5924;51.398;7.088;2022-10-24T10:59:41;17.60;99.90
11736;DHT22;5924;51.398;7.088;2022-10-24T11:02:15;17.60;99.90
11736;DHT22;5924;51.398;7.088;2022-10-24T11:07:43;17.70;99.90
11736;DHT22;5924;51.398;7.088;2022-10-24T11:10:21;17.70;99.90
11736;DHT22;5924;51.398;7.088;2022-10-24T11:12:48;17.50;99.90
11736;DHT22;5924;51.398;7.088;2022-10-24T11:15:15;17.40;99.90
11736;DHT22;5924;51.398;7.088;2022-10-24T11:20:25;17.20;99.90
11736;DHT22;5924;51.398;7.088;2022-10-24T11:26:02;17.50;99.90
11736;DHT22;5924;51.398;7.088;2022-10-24T11:28:58;17.60;99.90
11736;DHT22;5924;51.398;7.088;2022-10-24T11:31:39;17.60;99.90
11736;DHT22;5924;51.398;7.088;2022-10-24T11:44:45;18.30;99.90
11736;DHT22;5924;51.398;7.088;2022-10-24T11:50:32;18.20;99.90
11736;DHT22;5924;51.398;7.088;2022-10-24T11:53:24;18.00;99.90
11736;DHT22;5924;51.398;7.088;2022-10-24T11:55:49;17.80;99.90
11736;DHT22;5924;51.398;7.088;2022-10-24T11:58:20;17.80;99.90
11736;DHT22;5924;51.398;7.088;2022-10-24T12:04:04;17.70;99.90
11736;DHT22;5924;51.398;7.088;2022-10-24T12:20:17;17.40;99.90
11736;DHT22;5924;51.398;7.088;2022-10-24T12:22:44;17.40;99.90
11736;DHT22;5924;51.398;7.088;2022-10-24T12:25:21;17.30;99.90
11736;DHT22;5924;51.398;7.088;2022-10-24T12:28:05;17.00;99.90
11736;DHT22;5924;51.398;7.088;2022-10-24T12:30:34;16.70;99.90
11736;DHT22;5924;51.398;7.088;2022-10-24T12:33:24;16.50;99.90
11736;DHT22;5924;51.398;7.088;2022-10-24T12:35:51;16.40;99.90
11736;DHT22;5924;51.398;7.088;2022-10-24T12:43:36;16.30;99.90
11736;DHT22;5924;51.398;7.088;2022-10-24T12:51:39;16.40;99.90
11736;DHT22;5924;51.398;7.088;2022-10-24T13:10:26;17.30;99.90
11736;DHT22;5924;51.398;7.088;2022-10-24T13:15:53;17.90;99.90
11736;DHT22;5924;51.398;7.088;2022-10-24T13:21:29;18.60;99.90
11736;DHT22;5924;51.398;7.088;2022-10-24T13:29:14;18.80;99.90
11736;DHT22;5924;51.398;7.088;2022-10-24T13:31:43;18.80;99.90
11736;DHT22;5924;51.398;7.088;2022-10-24T13:36:41;18.90;99.90
11736;DHT22;5924;51.398;7.088;2022-10-24T13:39:16;18.80;99.90
11736;DHT22;5924;51.398;7.088;2022-10-24T13:41:45;18.90;99.90
11736;DHT22;5924;51.398;7.088;2022-10-24T13:44:28;18.80;99.90
11736;DHT22;5924;51.398;7.088;2022-10-24T13:47:15;18.70;99.90
11736;DHT22;5924;51.398;7.088;2022-10-24T13:55:20;18.70;99.90
11736;DHT22;5924;51.398;7.088;2022-10-24T14:00:46;18.60;99.90
11736;DHT22;5924;51.398;7.088;2022-10-24T14:03:16;18.70;99.90
11736;DHT22;5924;51.398;7.088;2022-10-24T14:05:57;18.90;99.90
11736;DHT22;5924;51.398;7.088;2022-10-24T14:08:34;19.10;99.90
11736;DHT22;5924;51.398;7.088;2022-10-24T14:11:06;19.10;99.90
11736;DHT22;5924;51.398;7.088;2022-10-24T14:13:35;19.10;99.90
11736;DHT22;5924;51.398;7.088;2022-10-24T14:16:05;18.90;99.90
11736;DHT22;5924;51.398;7.088;2022-10-24T14:18:32;18.80;99.90
11736;DHT22;5924;51.398;7.088;2022-10-24T14:21:00;18.70;99.90
11736;DHT22;5924;51.398;7.088;2022-10-24T14:23:27;18.50;99.90
11736;DHT22;5924;51.398;7.088;2022-10-24T14:26:11;18.30;99.90
11736;DHT22;5924;51.398;7.088;2022-10-24T14:28:44;18.10;99.90
11736;DHT22;5924;51.398;7.088;2022-10-24T14:31:22;18.10;99.90
11736;DHT22;5924;51.398;7.088;2022-10-24T14:33:50;18.40;99.90
11736;DHT22;5924;51.398;7.088;2022-10-24T14:36:19;18.50;99.90
11736;DHT22;5924;51.398;7.088;2022-10-24T14:38:50;18.50;99.90
11736;DHT22;5924;51.398;7.088;2022-10-24T14:41:17;18.40;99.90
11736;DHT22;5924;51.398;7.088;2022-10-24T14:43:45;18.30;99.90
11736;DHT22;5924;51.398;7.088;2022-10-24T14:48:39;18.00;99.90
11736;DHT22;5924;51.398;7.088;2022-10-24T14:51:30;17.90;99.90
11736;DHT22;5924;51.398;7.088;2022-10-24T14:54:03;17.70;99.90
11736;DHT22;5924;51.398;7.088;2022-10-24T14:56:35;17.60;99.90
11736;DHT22;5924;51.398;7.088;2022-10-24T14:59:28;17.50;99.90
11736;DHT22;5924;51.398;7.088;2022-10-24T15:04:41;17.40;99.90
11736;DHT22;5924;51.398;7.088;2022-10-24T15:09:54;17.70;99.90
11736;DHT22;5924;51.398;7.088;2022-10-24T15:12:41;17.60;99.90
11736;DHT22;5924;51.398;7.088;2022-10-24T15:15:25;17.60;99.90
11736;DHT22;5924;51.398;7.088;2022-10-24T15:17:56;17.50;99.90
11736;DHT22;5924;51.398;7.088;2022-10-24T15:20:24;17.40;99.90
11736;DHT22;5924;51.398;7.088;2022-10-24T15:22:56;17.30;99.90
11736;DHT22;5924;51.398;7.088;2022-10-24T15:25:28;17.10;99.90
11736;DHT22;5924;51.398;7.088;2022-10-24T15:27:55;17.10;99.90
11736;DHT22;5924;51.398;7.088;2022-10-24T15:30:29;17.00;99.90
11736;DHT22;5924;51.398;7.088;2022-10-24T15:32:56;17.00;99.90
11736;DHT22;5924;51.398;7.088;2022-10-24T15:35:23;16.90;99.90
11736;DHT22;5924;51.398;7.088;2022-10-24T15:38:13;16.90;99.90
11736;DHT22;5924;51.398;7.088;2022-10-24T15:40:42;16.80;99.90
11736;DHT22;5924;51.398;7.088;2022-10-24T15:43:15;16.80;99.90
11736;DHT22;5924;51.398;7.088;2022-10-24T15:45:41;16.70;99.90
11736;DHT22;5924;51.398;7.088;2022-10-24T15:48:07;16.60;99.90
11736;DHT22;5924;51.398;7.088;2022-10-24T15:50:33;16.50;99.90
11736;DHT22;5924;51.398;7.088;2022-10-24T15:53:01;16.30;99.90
11736;DHT22;5924;51.398;7.088;2022-10-24T15:55:29;15.90;99.90
11736;DHT22;5924;51.398;7.088;2022-10-24T15:57:55;15.40;99.90
11736;DHT22;5924;51.398;7.088;2022-10-24T16:00:22;15.20;99.90
11736;DHT22;5924;51.398;7.088;2022-10-24T16:02:51;15.00;99.90
11736;DHT22;5924;51.398;7.088;2022-10-24T16:05:25;14.80;99.90
11736;DHT22;5924;51.398;7.088;2022-10-24T16:07:51;14.70;99.90
11736;DHT22;5924;51.398;7.088;2022-10-24T16:10:19;14.60;99.90
11736;DHT22;5924;51.398;7.088;2022-10-24T16:12:46;14.60;99.90
11736;DHT22;5924;51.398;7.088;2022-10-24T16:15:20;14.60;99.90
11736;DHT22;5924;51.398;7.088;2022-10-24T16:17:46;14.50;99.90
11736;DHT22;5924;51.398;7.088;2022-10-24T16:20:12;14.40;99.90
11736;DHT22;5924;51.398;7.088;2022-10-24T16:22:40;14.40;99.90
11736;DHT22;5924;51.398;7.088;2022-10-24T16:25:07;14.30;99.90
11736;DHT22;5924;51.398;7.088;2022-10-24T16:27:33;14.20;99.90
11736;DHT22;5924;51.398;7.088;2022-10-24T16:29:58;14.10;99.90
11736;DHT22;5924;51.398;7.088;2022-10-24T16:32:24;14.00;99.90
11736;DHT22;5924;51.398;7.088;2022-10-24T16:34:49;13.90;99.90
11736;DHT22;5924;51.398;7.088;2022-10-24T16:37:16;13.80;99.90
11736;DHT22;5924;51.398;7.088;2022-10-24T16:39:44;13.70;99.90
11736;DHT22;5924;51.398;7.088;2022-10-24T16:42:10;13.70;99.90
11736;DHT22;5924;51.398;7.088;2022-10-24T16:44:35;13.70;99.90
11736;DHT22;5924;51.398;7.088;2022-10-24T16:47:03;13.70;99.90
11736;DHT22;5924;51.398;7.088;2022-10-24T16:49:29;13.70;99.90
11736;DHT22;5924;51.398;7.088;2022-10-24T16:51:56;13.80;99.90
11736;DHT22;5924;51.398;7.088;2022-10-24T16:54:22;13.80;99.90
11736;DHT22;5924;51.398;7.088;2022-10-24T16:56:49;13.80;99.90
11736;DHT22;5924;51.398;7.088;2022-10-24T16:59:17;13.80;99.90
11736;DHT22;5924;51.398;7.088;2022-10-24T17:01:42;13.90;99.90
11736;DHT22;5924;51.398;7.088;2022-10-24T17:04:08;13.90;99.90
11736;DHT22;5924;51.398;7.088;2022-10-24T17:06:34;13.90;99.90
11736;DHT22;5924;51.398;7.088;2022-10-24T17:09:00;13.90;99.90
11736;DHT22;5924;51.398;7.088;2022-10-24T17:11:25;13.90;99.90
11736;DHT22;5924;51.398;7.088;2022-10-24T17:13:51;14.00;99.90
11736;DHT22;5924;51.398;7.088;2022-10-24T17:16:17;14.10;99.90
11736;DHT22;5924;51.398;7.088;2022-10-24T17:18:43;14.10;99.90
11736;DHT22;5924;51.398;7.088;2022-10-24T17:21:09;14.10;99.90
11736;DHT22;5924;51.398;7.088;2022-10-24T17:23:34;14.20;99.90
11736;DHT22;5924;51.398;7.088;2022-10-24T17:26:00;14.20;99.90
11736;DHT22;5924;51.398;7.088;2022-10-24T17:28:27;14.20;99.90
11736;DHT22;5924;51.398;7.088;2022-10-24T17:30:53;14.20;99.90
11736;DHT22;5924;51.398;7.088;2022-10-24T17:33:18;14.20;99.90
11736;DHT22;5924;51.398;7.088;2022-10-24T17:35:52;14.30;99.90
11736;DHT22;5924;51.398;7.088;2022-10-24T17:38:44;14.30;99.90
11736;DHT22;5924;51.398;7.088;2022-10-24T17:43:42;14.10;99.90
11736;DHT22;5924;51.398;7.088;2022-10-24T17:46:11;13.90;99.90
11736;DHT22;5924;51.398;7.088;2022-10-24T17:48:37;13.80;99.90
11736;DHT22;5924;51.398;7.088;2022-10-24T17:51:03;13.70;99.90
11736;DHT22;5924;51.398;7.088;2022-10-24T17:53:28;13.60;99.90
11736;DHT22;5924;51.398;7.088;2022-10-24T17:55:54;13.50;99.90
11736;DHT22;5924;51.398;7.088;2022-10-24T17:58:20;13.40;99.90
11736;DHT22;5924;51.398;7.088;2022-10-24T18:00:46;13.30;99.90
11736;DHT22;5924;51.398;7.088;2022-10-24T18:03:12;13.20;99.90
11736;DHT22;5924;51.398;7.088;2022-10-24T18:05:38;13.20;99.90
11736;DHT22;5924;51.398;7.088;2022-10-24T18:08:06;13.10;99.90
11736;DHT22;5924;51.398;7.088;2022-10-24T18:10:32;13.00;99.90
11736;DHT22;5924;51.398;7.088;2022-10-24T18:12:57;12.90;99.90
11736;DHT22;5924;51.398;7.088;2022-10-24T18:15:23;12.80;99.90
11736;DHT22;5924;51.398;7.088;2022-10-24T18:17:49;12.80;99.90
11736;DHT22;5924;51.398;7.088;2022-10-24T18:20:14;12.70;99.90
11736;DHT22;5924;51.398;7.088;2022-10-24T18:22:41;12.10;99.90
11736;DHT22;5924;51.398;7.088;2022-10-24T18:25:08;12.60;99.90
11736;DHT22;5924;51.398;7.088;2022-10-24T18:27:35;12.50;99.90
11736;DHT22;5924;51.398;7.088;2022-10-24T18:30:01;12.50;99.90
11736;DHT22;5924;51.398;7.088;2022-10-24T18:32:28;12.40;99.90
11736;DHT22;5924;51.398;7.088;2022-10-24T18:34:53;12.40;99.90